Time;durP1;ratioP1;P1;durP2;ratioP2;P2;SDS_P1;SDS_P2;PMS_P1;PMS_P2;Temp;Humidity;BMP_temperature;BMP_pressure;BME280_temperature;BME280_humidity;BME280_pressure;Samples;Min_cycle;Max_cycle;Signal;HPM_P1;HPM_P2
2023/10/05 00:02:10;;;;;;;16.90;3.50;;;;;;;15.63;60.30;102106.59;107573;1254;99252;-63
2023/10/05 00:04:41;;;;;;;8.60;3.40;;;;;;;15.65;59.93;102106.05;107634;1255;99071;-66
2023/10/05 00:07:23;;;;;;;7.50;3.00;;;;;;;15.67;59.51;102109.14;107591;1255;113054;-62
2023/10/05 00:09:53;;;;;;;11.10;3.10;;;;;;;15.68;59.18;102112.17;107597;1257;108706;-62
2023/10/05 00:12:24;;;;;;;9.30;3.10;;;;;;;15.67;58.98;102113.47;107604;1254;107615;-63
2023/10/05 00:17:38;;;;;;;10.60;3.60;;;;;;;15.67;58.61;102122.36;107581;1256;99268;-62
2023/10/05 00:20:21;;;;;;;10.60;3.60;;;;;;;15.66;58.38;102120.94;107595;1255;113481;-63
2023/10/05 00:22:51;;;;;;;8.60;3.60;;;;;;;15.66;58.00;102121.51;107589;1256;109870;-62
2023/10/05 00:25:23;;;;;;;15.80;3.10;;;;;;;15.66;57.96;102123.34;107591;1254;108834;-62
2023/10/05 00:27:54;;;;;;;12.20;3.10;;;;;;;15.66;57.76;102116.64;107647;1254;99333;-61
2023/10/05 00:30:23;;;;;;;8.40;3.80;;;;;;;15.66;57.67;102117.70;107622;1254;99170;-61
2023/10/05 00:32:58;;;;;;;9.30;3.30;;;;;;;15.67;57.44;102121.25;107556;1254;111643;-63
2023/10/05 00:35:29;;;;;;;6.30;3.50;;;;;;;15.66;57.01;102118.98;107555;1255;110942;-64
2023/10/05 00:38:04;;;;;;;10.30;3.70;;;;;;;15.65;56.77;102113.27;107551;1254;108384;-62
2023/10/05 00:40:36;;;;;;;8.00;3.60;;;;;;;15.63;56.50;102104.96;107492;1257;99210;-62
2023/10/05 00:43:21;;;;;;;12.30;4.00;;;;;;;15.61;56.51;102100.02;107490;1254;99708;-61
2023/10/05 00:45:50;;;;;;;6.50;3.10;;;;;;;15.60;56.46;102100.52;107585;1254;112103;-62
2023/10/05 00:49:13;;;;;;;12.70;3.60;;;;;;;15.57;56.45;102104.45;107573;1257;110373;-62
2023/10/05 00:51:17;;;;;;;9.90;3.90;;;;;;;15.51;56.25;102118.64;107480;1257;108459;-62
2023/10/05 00:53:47;;;;;;;20.50;3.60;;;;;;;15.44;55.94;102125.23;107555;1255;99871;-63
2023/10/05 00:56:15;;;;;;;15.70;5.60;;;;;;;15.35;55.60;102125.81;107565;1254;99323;-62
2023/10/05 00:58:44;;;;;;;9.20;4.10;;;;;;;15.26;55.58;102123.05;107579;1257;111824;-63
2023/10/05 01:01:21;;;;;;;11.20;4.20;;;;;;;15.19;55.50;102120.52;107565;1254;110077;-62
2023/10/05 01:06:48;;;;;;;11.70;3.30;;;;;;;15.18;55.88;102127.52;107627;1256;99188;-62
2023/10/05 01:12:43;;;;;;;14.50;5.00;;;;;;;15.22;55.69;102126.11;107531;1256;112335;-64
2023/10/05 01:14:52;;;;;;;10.90;3.10;;;;;;;15.23;55.57;102122.92;107537;1256;109938;-62
2023/10/05 01:17:25;;;;;;;10.50;3.50;;;;;;;15.24;55.35;102121.37;107624;1257;109012;-62
2023/10/05 01:19:59;;;;;;;15.80;4.00;;;;;;;15.23;55.35;102115.70;107568;1254;99163;-62
2023/10/05 01:22:44;;;;;;;13.90;3.60;;;;;;;15.24;55.34;102120.85;107534;1254;99380;-64
2023/10/05 01:25:14;;;;;;;12.70;4.00;;;;;;;15.24;55.37;102119.91;107578;1254;113291;-62
2023/10/05 01:27:48;;;;;;;14.00;3.50;;;;;;;15.26;55.50;102119.26;107602;1255;109195;-62
2023/10/05 01:30:17;;;;;;;10.00;3.30;;;;;;;15.27;55.69;102115.90;107509;1256;108325;-65
2023/10/05 01:32:47;;;;;;;15.10;3.70;;;;;;;15.27;55.72;102115.88;107590;1255;99396;-61
2023/10/05 01:35:20;;;;;;;9.40;4.10;;;;;;;15.28;55.75;102118.19;107600;1255;99057;-63
2023/10/05 01:37:52;;;;;;;10.10;4.00;;;;;;;15.28;55.95;102124.11;107509;1255;111433;-62
2023/10/05 01:42:51;;;;;;;8.80;3.20;;;;;;;15.28;55.99;102128.81;107597;1256;107339;-63
2023/10/05 01:45:29;;;;;;;12.80;3.60;;;;;;;15.27;55.98;102130.54;107587;1257;99195;-62
2023/10/05 01:48:12;;;;;;;14.10;3.50;;;;;;;15.26;56.29;102132.94;107571;1256;99431;-62
2023/10/05 01:50:44;;;;;;;11.00;3.30;;;;;;;15.26;56.39;102132.45;107546;1254;113578;-62
2023/10/05 01:53:15;;;;;;;16.70;4.10;;;;;;;15.25;56.43;102128.87;107577;1254;109341;-62
2023/10/05 01:55:45;;;;;;;12.90;3.40;;;;;;;15.24;56.44;102129.72;107584;1256;108596;-62
2023/10/05 01:58:26;;;;;;;13.80;3.90;;;;;;;15.22;56.59;102127.94;107617;1254;99188;-62
2023/10/05 02:00:56;;;;;;;13.00;3.60;;;;;;;15.19;56.61;102134.47;107576;1254;99720;-63
2023/10/05 02:03:25;;;;;;;15.60;3.30;;;;;;;15.16;56.68;102136.38;107637;1254;113370;-63
2023/10/05 02:06:03;;;;;;;15.00;3.00;;;;;;;15.12;56.74;102136.50;107546;1254;108198;-63
2023/10/05 02:08:36;;;;;;;14.30;4.20;;;;;;;15.10;56.92;102140.66;107537;1254;107683;-62
2023/10/05 02:11:04;;;;;;;14.30;3.10;;;;;;;15.09;57.25;102136.22;107533;1254;99176;-63
2023/10/05 02:13:33;;;;;;;17.70;3.90;;;;;;;15.08;57.17;102145.36;107607;1255;99092;-62
2023/10/05 02:16:02;;;;;;;11.10;3.30;;;;;;;15.07;57.27;102144.02;107658;1255;112529;-62
2023/10/05 02:18:31;;;;;;;8.20;3.40;;;;;;;15.07;57.42;102142.59;107549;1253;108948;-62
2023/10/05 02:21:07;;;;;;;11.90;3.50;;;;;;;15.07;57.52;102136.05;107549;1251;107901;-63
2023/10/05 02:23:42;;;;;;;9.50;3.20;;;;;;;15.07;57.50;102136.05;107610;1251;99313;-62
2023/10/05 02:29:14;;;;;;;12.10;3.20;;;;;;;15.00;57.66;102139.73;107613;1254;112583;-62
2023/10/05 02:34:29;;;;;;;12.60;3.90;;;;;;;14.95;58.03;102149.35;107578;1256;108504;-62
2023/10/05 02:37:00;;;;;;;11.90;3.80;;;;;;;14.94;58.12;102149.78;107597;1254;101158;-63
2023/10/05 02:39:32;;;;;;;22.80;3.50;;;;;;;14.94;58.33;102156.29;107567;1254;99729;-62
2023/10/05 02:42:03;;;;;;;12.10;3.50;;;;;;;14.94;58.39;102157.53;107524;1254;112530;-63
2023/10/05 02:44:35;;;;;;;11.60;3.70;;;;;;;14.94;58.44;102156.84;107569;1254;109766;-62
2023/10/05 02:47:10;;;;;;;15.70;4.30;;;;;;;14.94;58.51;102155.96;107568;1255;108410;-63
2023/10/05 02:49:43;;;;;;;11.90;3.50;;;;;;;14.93;58.65;102158.55;107543;1254;99131;-61
2023/10/05 02:52:15;;;;;;;14.30;3.80;;;;;;;14.92;58.88;102164.59;107654;1251;99060;-62
2023/10/05 02:54:45;;;;;;;15.60;3.70;;;;;;;14.91;58.95;102163.96;107550;1254;113417;-61
2023/10/05 02:57:16;;;;;;;9.80;4.00;;;;;;;14.90;59.03;102160.02;107533;1253;109655;-62
2023/10/05 02:59:46;;;;;;;14.80;3.90;;;;;;;14.90;58.98;102159.01;107591;1254;107040;-62
2023/10/05 03:02:14;;;;;;;21.50;5.20;;;;;;;14.89;59.41;102161.77;107433;1255;99291;-63
2023/10/05 03:04:45;;;;;;;29.50;4.90;;;;;;;14.87;59.19;102156.72;107532;1254;99048;-62
2023/10/05 03:07:25;;;;;;;17.50;4.30;;;;;;;14.84;58.77;102155.30;107567;1254;113390;-63
2023/10/05 03:09:59;;;;;;;7.00;3.40;;;;;;;14.82;58.30;102155.31;107598;1254;109648;-63
2023/10/05 03:12:32;;;;;;;10.70;3.60;;;;;;;14.79;57.96;102153.96;107595;1252;108646;-63
2023/10/05 03:15:05;;;;;;;14.40;4.00;;;;;;;14.73;57.88;102152.44;107597;1251;99185;-63
2023/10/05 03:17:36;;;;;;;15.70;4.30;;;;;;;14.67;57.85;102153.29;107622;1254;99229;-63
2023/10/05 03:20:08;;;;;;;16.10;6.20;;;;;;;14.63;57.91;102153.45;107605;1254;112140;-62
2023/10/05 03:22:37;;;;;;;27.50;4.30;;;;;;;14.59;57.92;102150.90;107665;1251;108292;-62
2023/10/05 03:25:06;;;;;;;17.40;4.20;;;;;;;14.53;58.01;102154.97;107588;1251;106534;-62
2023/10/05 03:27:36;;;;;;;20.50;4.90;;;;;;;14.45;58.02;102153.52;107537;1254;99296;-62
2023/10/05 03:30:06;;;;;;;19.60;5.20;;;;;;;14.36;58.22;102154.02;107623;1254;99208;-62
2023/10/05 03:32:35;;;;;;;12.30;3.90;;;;;;;14.32;58.44;102150.63;107569;1254;111742;-62
2023/10/05 03:35:08;;;;;;;25.50;3.90;;;;;;;14.27;58.54;102149.55;107600;1257;109404;-63
2023/10/05 03:37:41;;;;;;;21.40;4.50;;;;;;;14.22;58.53;102147.98;107544;1255;107205;-63
2023/10/05 03:40:24;;;;;;;12.10;4.10;;;;;;;14.15;58.65;102150.17;107551;1251;99210;-63
2023/10/05 03:43:00;;;;;;;11.90;4.50;;;;;;;14.04;59.07;102149.66;107603;1251;99171;-63
2023/10/05 03:45:34;;;;;;;22.10;5.00;;;;;;;13.92;59.42;102148.98;107639;1254;112236;-62
2023/10/05 03:48:03;;;;;;;16.20;5.20;;;;;;;13.81;59.66;102149.33;107596;1254;108638;-63
2023/10/05 03:50:31;;;;;;;22.30;5.20;;;;;;;13.71;60.22;102149.89;107531;1254;107452;-62
2023/10/05 03:53:00;;;;;;;20.00;5.40;;;;;;;13.63;60.24;102142.66;107533;1257;99197;-63
2023/10/05 03:55:29;;;;;;;19.40;5.00;;;;;;;13.57;60.43;102151.42;107623;1251;99678;-64
2023/10/05 03:57:58;;;;;;;23.20;4.90;;;;;;;13.51;60.64;102155.98;107642;1251;111813;-62
2023/10/05 04:00:35;;;;;;;12.90;4.50;;;;;;;13.48;60.83;102160.43;107633;1251;110569;-62
2023/10/05 04:03:06;;;;;;;20.50;4.10;;;;;;;13.44;60.86;102163.79;107565;1255;108762;-63
2023/10/05 04:05:39;;;;;;;15.00;4.60;;;;;;;13.40;60.93;102166.77;107527;1256;99507;-62
2023/10/05 04:08:12;;;;;;;10.50;4.30;;;;;;;13.40;61.25;102164.08;107547;1254;99175;-62
2023/10/05 04:10:47;;;;;;;14.70;4.20;;;;;;;13.38;62.11;102162.39;107630;1251;112352;-63
2023/10/05 04:13:20;;;;;;;17.40;4.70;;;;;;;13.32;62.22;102162.46;107631;1251;109128;-62
2023/10/05 04:15:51;;;;;;;25.70;5.90;;;;;;;13.29;62.26;102167.00;107627;1251;107349;-62
2023/10/05 04:18:20;;;;;;;16.50;5.40;;;;;;;13.29;62.44;102170.66;107570;1251;99195;-62
2023/10/05 04:20:50;;;;;;;14.90;4.50;;;;;;;13.28;62.78;102170.95;107629;1251;99082;-62
2023/10/05 04:23:26;;;;;;;26.90;5.00;;;;;;;13.29;62.81;102177.17;107606;1251;113076;-61
2023/10/05 04:25:56;;;;;;;30.40;4.80;;;;;;;13.30;62.85;102178.84;107579;1251;109961;-61
2023/10/05 04:28:31;;;;;;;15.90;4.60;;;;;;;13.31;62.95;102179.29;107605;1255;107869;-63
2023/10/05 04:31:00;;;;;;;14.40;4.30;;;;;;;13.30;63.26;102175.97;107573;1251;99723;-62
2023/10/05 04:33:31;;;;;;;19.40;4.70;;;;;;;13.27;63.49;102178.04;107565;1253;99201;-63
2023/10/05 04:36:03;;;;;;;16.40;5.40;;;;;;;13.27;63.74;102175.14;107630;1252;113071;-62
2023/10/05 04:38:32;;;;;;;29.70;6.00;;;;;;;13.29;63.80;102179.16;107516;1254;109624;-63
2023/10/05 04:41:00;;;;;;;18.10;4.70;;;;;;;13.27;64.15;102177.48;107577;1254;108827;-64
2023/10/05 04:43:32;;;;;;;17.80;5.30;;;;;;;13.25;64.03;102178.93;107526;1254;99194;-64
2023/10/05 04:46:07;;;;;;;23.30;4.70;;;;;;;13.23;64.23;102182.29;107595;1254;99067;-63
2023/10/05 04:48:38;;;;;;;23.70;4.80;;;;;;;13.21;64.57;102187.35;107540;1254;112691;-64
2023/10/05 04:51:06;;;;;;;17.70;4.30;;;;;;;13.18;64.64;102185.05;107530;1253;110042;-63
2023/10/05 04:53:38;;;;;;;25.40;5.30;;;;;;;13.18;64.57;102187.53;107555;1256;108282;-62
2023/10/05 04:56:22;;;;;;;19.00;4.90;;;;;;;13.19;64.64;102188.70;107509;1253;99191;-62
2023/10/05 04:59:06;;;;;;;21.50;5.00;;;;;;;13.22;64.62;102194.46;107550;1254;99804;-63
2023/10/05 05:04:28;;;;;;;24.90;7.70;;;;;;;13.28;64.62;102195.75;107508;1254;109806;-62
2023/10/05 05:07:00;;;;;;;16.30;5.10;;;;;;;13.33;64.49;102192.34;107511;1255;107724;-62
2023/10/05 05:09:30;;;;;;;15.10;4.40;;;;;;;13.35;64.44;102196.65;107552;1255;99896;-62
2023/10/05 05:12:05;;;;;;;19.00;4.70;;;;;;;13.38;64.28;102199.67;107608;1254;99194;-63
2023/10/05 05:14:35;;;;;;;29.40;5.80;;;;;;;13.41;64.28;102205.42;107585;1254;112454;-63
2023/10/05 05:17:05;;;;;;;15.10;4.40;;;;;;;13.44;64.20;102207.73;107419;1254;109612;-62
2023/10/05 05:19:36;;;;;;;18.20;4.90;;;;;;;13.48;64.06;102204.77;107510;1254;107705;-62
2023/10/05 05:22:05;;;;;;;16.90;4.70;;;;;;;13.51;64.13;102203.05;107543;1254;99317;-62
2023/10/05 05:24:34;;;;;;;27.60;6.20;;;;;;;13.55;64.00;102205.63;107516;1257;99352;-62
2023/10/05 05:27:04;;;;;;;21.70;6.10;;;;;;;13.59;63.96;102203.88;107615;1254;112806;-62
2023/10/05 05:29:34;;;;;;;31.20;7.00;;;;;;;13.64;64.00;102205.63;107536;1254;109907;-62
2023/10/05 05:32:13;;;;;;;17.90;5.20;;;;;;;13.73;63.85;102203.50;107553;1251;108361;-63
2023/10/05 05:34:42;;;;;;;29.40;5.30;;;;;;;13.83;63.66;102202.93;107523;1252;99164;-64
2023/10/05 05:37:18;;;;;;;33.90;5.90;;;;;;;13.90;63.49;102202.50;107574;1253;99208;-63
2023/10/05 05:39:47;;;;;;;18.50;5.50;;;;;;;13.94;63.74;102215.16;107546;1254;113749;-63
2023/10/05 05:42:18;;;;;;;23.00;6.00;;;;;;;13.94;63.43;102213.21;107632;1254;109264;-62
2023/10/05 05:44:47;;;;;;;34.90;9.60;;;;;;;13.93;63.23;102217.38;107520;1253;108311;-63
2023/10/05 05:47:15;;;;;;;30.70;7.50;;;;;;;13.94;63.22;102216.96;107573;1255;99218;-64
2023/10/05 05:49:46;;;;;;;29.20;6.20;;;;;;;13.95;63.15;102220.88;107529;1256;99771;-63
2023/10/05 05:52:15;;;;;;;26.40;6.00;;;;;;;13.96;63.15;102225.29;107647;1254;111784;-63
2023/10/05 05:54:52;;;;;;;30.70;7.20;;;;;;;13.98;63.08;102227.27;107608;1256;108910;-62
2023/10/05 05:57:20;;;;;;;21.60;6.30;;;;;;;14.00;62.69;102229.45;107517;1254;107593;-62
2023/10/05 05:59:49;;;;;;;27.80;6.30;;;;;;;14.04;62.34;102232.75;107448;1253;99182;-62
2023/10/05 06:02:17;;;;;;;34.50;6.80;;;;;;;14.09;61.99;102232.56;107523;1254;99695;-62
2023/10/05 06:04:47;;;;;;;19.40;6.20;;;;;;;14.14;61.89;102222.83;107561;1254;112966;-64
2023/10/05 06:07:16;;;;;;;34.20;6.60;;;;;;;14.19;61.82;102220.76;107585;1254;108004;-62
2023/10/05 06:09:45;;;;;;;20.40;5.70;;;;;;;14.26;61.82;102221.31;107482;1256;107529;-62
2023/10/05 06:12:16;;;;;;;17.40;5.70;;;;;;;14.32;61.62;102221.69;107603;1252;99190;-65
2023/10/05 06:14:44;;;;;;;16.70;5.60;;;;;;;14.38;61.08;102224.98;107418;1254;99175;-62
2023/10/05 06:17:13;;;;;;;24.20;6.20;;;;;;;14.43;60.99;102224.27;107515;1254;113449;-64
2023/10/05 06:19:41;;;;;;;16.90;5.60;;;;;;;14.46;60.45;102232.51;107616;1254;109880;-62
2023/10/05 06:22:10;;;;;;;22.00;5.20;;;;;;;14.48;60.44;102236.81;107571;1253;108142;-63
2023/10/05 06:24:42;;;;;;;15.90;5.10;;;;;;;14.50;60.33;102233.02;107536;1254;99185;-63
2023/10/05 06:27:12;;;;;;;16.10;5.80;;;;;;;14.52;59.57;102238.44;107560;1254;99801;-63
2023/10/05 06:29:41;;;;;;;23.90;5.20;;;;;;;14.55;59.55;102236.04;107625;1252;113238;-62
2023/10/05 06:32:10;;;;;;;17.90;5.00;;;;;;;14.60;59.46;102235.81;107654;1254;109710;-63
2023/10/05 06:34:38;;;;;;;16.30;6.00;;;;;;;14.65;59.32;102238.17;107561;1251;107657;-62
2023/10/05 06:37:06;;;;;;;23.80;5.20;;;;;;;14.71;59.13;102242.94;107500;1254;99208;-62
2023/10/05 06:39:34;;;;;;;19.30;4.90;;;;;;;14.77;58.96;102247.16;107536;1254;99513;-62
2023/10/05 06:42:04;;;;;;;18.70;5.30;;;;;;;14.82;58.81;102248.84;107600;1254;112903;-64
2023/10/05 06:44:34;;;;;;;25.80;6.30;;;;;;;14.89;58.67;102247.57;107587;1251;108727;-64
2023/10/05 06:47:04;;;;;;;17.80;5.70;;;;;;;14.95;58.39;102249.23;107544;1252;107543;-63
2023/10/05 06:49:35;;;;;;;16.60;4.80;;;;;;;15.05;58.20;102251.70;107522;1254;99262;-63
2023/10/05 06:52:05;;;;;;;23.70;5.20;;;;;;;15.13;57.13;102250.23;107606;1252;99294;-64
2023/10/05 06:54:34;;;;;;;16.20;4.20;;;;;;;15.22;57.04;102247.56;107516;1254;113529;-63
2023/10/05 06:57:02;;;;;;;10.30;4.60;;;;;;;15.36;56.84;102252.27;107586;1255;109966;-62
2023/10/05 06:59:31;;;;;;;22.90;4.80;;;;;;;15.50;55.80;102248.90;107629;1256;108346;-62
2023/10/05 07:01:59;;;;;;;16.00;4.30;;;;;;;15.61;55.56;102254.68;107583;1255;99121;-63
2023/10/05 07:04:28;;;;;;;16.90;4.00;;;;;;;15.72;55.28;102256.42;107563;1254;99227;-62
2023/10/05 07:06:56;;;;;;;13.70;4.60;;;;;;;15.82;54.83;102255.45;107582;1254;112150;-62
2023/10/05 07:09:26;;;;;;;18.80;4.60;;;;;;;15.91;54.82;102257.23;107616;1251;109214;-62
2023/10/05 07:11:54;;;;;;;21.60;3.80;;;;;;;15.98;54.20;102252.98;107596;1251;108646;-63
2023/10/05 07:14:24;;;;;;;12.40;4.00;;;;;;;16.04;53.52;102253.11;107582;1254;99137;-63
2023/10/05 07:16:55;;;;;;;14.60;4.10;;;;;;;16.10;53.16;102254.25;107563;1252;99067;-63
2023/10/05 07:19:23;;;;;;;21.40;4.10;;;;;;;16.13;52.45;102252.55;107588;1254;113601;-63
2023/10/05 07:21:52;;;;;;;10.90;4.30;;;;;;;16.14;52.48;102251.18;107502;1256;109224;-63
2023/10/05 07:24:20;;;;;;;15.30;3.90;;;;;;;16.20;52.65;102251.40;107567;1253;108162;-64
2023/10/05 07:26:49;;;;;;;8.60;3.70;;;;;;;16.29;52.71;102246.64;107586;1253;99205;-63
2023/10/05 07:29:17;;;;;;;14.00;4.40;;;;;;;16.40;51.56;102242.76;107638;1251;99736;-63
2023/10/05 07:31:58;;;;;;;10.20;3.60;;;;;;;16.49;51.50;102241.69;107581;1254;112381;-62
2023/10/05 07:34:27;;;;;;;15.40;3.90;;;;;;;16.56;50.73;102245.02;107569;1254;109758;-62
2023/10/05 07:36:57;;;;;;;13.90;3.90;;;;;;;16.61;50.38;102246.84;107585;1251;108336;-62
2023/10/05 07:39:25;;;;;;;12.20;3.60;;;;;;;16.67;50.47;102244.81;107595;1255;99084;-62
2023/10/05 07:41:55;;;;;;;12.30;4.10;;;;;;;16.78;50.59;102242.54;107603;1251;99083;-62
2023/10/05 07:44:23;;;;;;;10.00;3.30;;;;;;;16.88;50.21;102239.46;107600;1251;112221;-61
2023/10/05 07:46:53;;;;;;;81.30;8.50;;;;;;;16.99;49.72;102231.58;107561;1251;109749;-64
2023/10/05 07:49:22;;;;;;;14.30;3.80;;;;;;;17.11;49.63;102231.42;107558;1251;107449;-63
2023/10/05 07:51:51;;;;;;;12.50;3.30;;;;;;;17.21;48.51;102234.48;107605;1254;99269;-63
2023/10/05 07:54:20;;;;;;;9.70;3.70;;;;;;;17.29;47.99;102236.80;107552;1251;99122;-62
2023/10/05 07:56:48;;;;;;;9.80;2.80;;;;;;;17.42;47.74;102233.40;107648;1251;112765;-62
2023/10/05 07:59:16;;;;;;;5.40;2.70;;;;;;;17.52;46.87;102232.09;107564;1251;109787;-63
2023/10/05 08:01:45;;;;;;;8.30;2.40;;;;;;;17.63;46.42;102231.77;107581;1251;108367;-63
2023/10/05 08:04:14;;;;;;;7.00;2.40;;;;;;;17.74;46.11;102226.36;107473;1251;99174;-62
2023/10/05 08:06:44;;;;;;;7.20;2.70;;;;;;;17.83;45.73;102223.09;107614;1251;99125;-62
2023/10/05 08:09:15;;;;;;;11.00;3.60;;;;;;;17.95;45.96;102223.60;107640;1251;112681;-63
2023/10/05 08:11:44;;;;;;;7.40;3.00;;;;;;;18.09;45.13;102222.68;107535;1254;109504;-64
2023/10/05 08:14:13;;;;;;;13.70;3.20;;;;;;;18.26;45.64;102217.95;107601;1251;108216;-64
2023/10/05 08:16:41;;;;;;;11.80;3.40;;;;;;;18.46;45.19;102214.10;107572;1254;99178;-62
2023/10/05 08:19:10;;;;;;;8.60;3.20;;;;;;;18.66;44.98;102213.77;107648;1251;99065;-63
2023/10/05 08:21:40;;;;;;;14.10;3.20;;;;;;;18.87;45.07;102209.65;107568;1251;112884;-64
2023/10/05 08:24:09;;;;;;;8.40;3.00;;;;;;;19.06;43.01;102215.84;107602;1251;109589;-62
2023/10/05 08:26:39;;;;;;;14.70;3.10;;;;;;;19.18;43.35;102208.07;107485;1254;107120;-62
2023/10/05 08:29:09;;;;;;;13.30;3.00;;;;;;;19.41;43.14;102205.98;107422;1251;99262;-63
2023/10/05 08:31:37;;;;;;;7.70;2.70;;;;;;;19.67;41.73;102204.83;107477;1251;99867;-64
2023/10/05 08:34:06;;;;;;;8.10;3.30;;;;;;;19.83;41.26;102201.71;107594;1251;113250;-62
2023/10/05 08:36:35;;;;;;;7.90;2.50;;;;;;;19.92;40.21;102200.72;107561;1254;109306;-63
2023/10/05 08:39:03;;;;;;;9.20;3.00;;;;;;;19.93;39.16;102195.14;107552;1251;107570;-62
2023/10/05 08:41:35;;;;;;;13.20;2.90;;;;;;;19.93;39.42;102191.92;107593;1251;99268;-62
2023/10/05 08:44:15;;;;;;;8.40;3.20;;;;;;;20.06;39.97;102186.02;107521;1253;99827;-63
2023/10/05 08:46:44;;;;;;;10.80;2.90;;;;;;;20.32;40.17;102180.41;107591;1251;113326;-62
2023/10/05 08:49:15;;;;;;;7.70;2.20;;;;;;;20.65;40.07;102180.55;107493;1251;109523;-62
2023/10/05 08:51:44;;;;;;;9.60;2.70;;;;;;;20.92;38.71;102175.95;107507;1253;107793;-62
2023/10/05 08:54:28;;;;;;;6.20;3.10;;;;;;;21.27;39.22;102171.72;107537;1252;99220;-63
2023/10/05 08:56:58;;;;;;;10.50;3.40;;;;;;;21.62;37.72;102163.21;107521;1253;99208;-62
2023/10/05 08:59:27;;;;;;;6.20;3.60;;;;;;;21.92;36.97;102158.48;107592;1251;113348;-63
2023/10/05 09:02:01;;;;;;;7.50;2.90;;;;;;;22.20;37.11;102151.49;107551;1254;109030;-63
2023/10/05 09:04:43;;;;;;;10.80;3.30;;;;;;;22.59;37.20;102145.48;107487;1255;108525;-63
2023/10/05 09:07:38;;;;;;;5.10;2.90;;;;;;;23.07;35.93;102145.27;107595;1253;99211;-66
2023/10/05 09:10:15;;;;;;;12.60;3.00;;;;;;;23.87;35.52;102137.95;107604;1254;99178;-64
2023/10/05 09:12:46;;;;;;;15.30;3.00;;;;;;;24.69;35.11;102136.27;107610;1255;112535;-63
2023/10/05 09:15:21;;;;;;;9.00;2.70;;;;;;;25.43;32.32;102134.31;107601;1254;109435;-63
2023/10/05 09:17:58;;;;;;;8.00;2.60;;;;;;;26.00;31.89;102130.80;107575;1254;107287;-64
2023/10/05 09:20:33;;;;;;;9.60;2.80;;;;;;;26.50;30.56;102126.20;107598;1253;99310;-61
2023/10/05 09:23:05;;;;;;;9.40;2.80;;;;;;;27.09;31.18;102123.04;107582;1254;99181;-61
2023/10/05 09:25:38;;;;;;;10.20;2.80;;;;;;;27.71;29.75;102118.07;107585;1255;113986;-62
2023/10/05 09:28:16;;;;;;;15.10;3.30;;;;;;;28.23;29.24;102110.95;107588;1251;109439;-63
2023/10/05 09:30:46;;;;;;;13.70;3.10;;;;;;;28.80;28.78;102107.15;107542;1252;108317;-63
2023/10/05 09:33:18;;;;;;;18.40;2.90;;;;;;;29.29;26.63;102105.23;107546;1254;99169;-62
2023/10/05 09:35:47;;;;;;;11.30;3.10;;;;;;;29.48;26.22;102102.27;107633;1254;99154;-62
2023/10/05 09:38:19;;;;;;;17.50;3.20;;;;;;;29.80;26.58;102093.23;107482;1254;113551;-63
2023/10/05 09:40:48;;;;;;;24.20;3.10;;;;;;;30.46;27.03;102084.61;107575;1253;109269;-63
2023/10/05 09:43:21;;;;;;;5.60;2.60;;;;;;;31.02;25.93;102081.10;107520;1252;108141;-62
2023/10/05 09:45:52;;;;;;;;;;;;;;;31.45;25.38;102072.35;107564;1253;99058;-63
2023/10/05 09:48:21;;;;;;;15.70;2.60;;;;;;;31.84;24.74;102069.47;107573;1254;99718;-62
2023/10/05 09:50:52;;;;;;;10.80;2.90;;;;;;;32.32;24.04;102060.69;107629;1254;114017;-63
2023/10/05 09:53:21;;;;;;;6.70;2.80;;;;;;;32.86;24.18;102055.27;107636;1253;109075;-63
2023/10/05 09:55:53;;;;;;;10.80;3.20;;;;;;;33.33;23.39;102043.95;107532;1254;107820;-64
2023/10/05 09:58:22;;;;;;;12.40;2.40;;;;;;;33.64;22.96;102043.93;107565;1253;99173;-62
2023/10/05 10:00:55;;;;;;;6.40;2.40;;;;;;;34.09;22.27;102038.33;107576;1253;99177;-63
2023/10/05 10:03:23;;;;;;;13.00;2.40;;;;;;;34.25;21.42;102033.33;107580;1253;113772;-62
2023/10/05 10:06:08;;;;;;;5.80;2.40;;;;;;;34.39;21.65;102023.90;107595;1254;109364;-63
2023/10/05 10:09:09;;;;;;;5.90;2.10;;;;;;;34.61;20.34;102016.36;107035;1253;716946;-63
2023/10/05 10:11:31;;;;;;;8.10;2.70;;;;;;;34.41;19.82;102012.09;107483;1254;99199;-62
2023/10/05 10:14:06;;;;;;;7.50;2.30;;;;;;;34.57;20.63;102003.55;107603;1254;99063;-63
2023/10/05 10:16:42;;;;;;;10.60;2.70;;;;;;;34.93;19.93;101998.39;107592;1253;113233;-62
2023/10/05 10:19:20;;;;;;;8.70;3.00;;;;;;;35.08;19.32;101998.03;107586;1254;110203;-63
2023/10/05 10:21:59;;;;;;;8.70;2.30;;;;;;;35.24;19.82;101987.25;107561;1253;107413;-62
2023/10/05 10:24:29;;;;;;;12.80;2.60;;;;;;;35.44;19.41;101976.13;107556;1253;99083;-62
2023/10/05 10:27:11;;;;;;;9.40;2.20;;;;;;;35.77;19.59;101966.22;107580;1254;99700;-62
2023/10/05 10:29:47;;;;;;;12.20;2.20;;;;;;;35.99;19.00;101964.42;107594;1252;113523;-62
2023/10/05 10:32:20;;;;;;;10.80;2.70;;;;;;;36.15;18.66;101951.98;107631;1253;110004;-63
2023/10/05 10:34:52;;;;;;;11.40;2.40;;;;;;;36.37;18.63;101947.98;107550;1253;108650;-62
2023/10/05 10:37:42;;;;;;;11.80;2.70;;;;;;;36.58;18.60;101941.04;107503;1253;99214;-61
2023/10/05 10:45:44;;;;;;;9.90;3.20;;;;;;;36.55;17.76;101927.27;107573;1253;109869;-63
2023/10/05 10:48:28;;;;;;;7.60;2.30;;;;;;;36.55;17.59;101924.29;107538;1251;107359;-62
2023/10/05 10:51:02;;;;;;;8.00;2.60;;;;;;;36.59;18.05;101913.80;107537;1253;99061;-62
2023/10/05 10:53:33;;;;;;;6.80;2.60;;;;;;;36.98;17.95;101910.63;107498;1253;99190;-62
2023/10/05 10:56:05;;;;;;;9.60;2.60;;;;;;;37.15;17.32;101911.89;107565;1254;112955;-62
2023/10/05 10:58:34;;;;;;;8.80;2.60;;;;;;;37.16;17.23;101908.62;107578;1251;110196;-63
2023/10/05 11:01:04;;;;;;;8.50;2.70;;;;;;;36.97;16.52;101903.50;107611;1255;109101;-62
2023/10/05 11:03:36;;;;;;;6.50;2.50;;;;;;;36.59;17.15;101904.33;107523;1254;99278;-62
2023/10/05 11:06:09;;;;;;;6.20;2.50;;;;;;;36.46;17.47;101896.17;107556;1253;99064;-62
2023/10/05 11:08:40;;;;;;;13.30;3.00;;;;;;;36.40;17.62;101884.64;107503;1251;113953;-62
2023/10/05 11:11:15;;;;;;;8.40;2.80;;;;;;;36.07;17.34;101888.70;107479;1255;108951;-63
2023/10/05 11:13:49;;;;;;;10.30;2.70;;;;;;;35.71;18.14;101879.35;107536;1253;106934;-62
2023/10/05 11:16:19;;;;;;;6.50;2.30;;;;;;;35.65;18.08;101877.79;107484;1253;99234;-63
2023/10/05 11:19:24;;;;;;;8.60;2.40;;;;;;;35.61;17.46;101880.63;107563;1256;99205;-62
2023/10/05 11:22:04;;;;;;;3.70;2.40;;;;;;;35.05;17.89;101874.99;107534;1256;112136;-62
2023/10/05 11:24:39;;;;;;;6.60;2.50;;;;;;;34.56;18.53;101874.79;107541;1251;110544;-62
2023/10/05 11:27:14;;;;;;;7.10;2.60;;;;;;;34.20;19.07;101872.16;107558;1251;108207;-62
2023/10/05 11:29:47;;;;;;;7.40;2.40;;;;;;;33.94;19.11;101866.25;107561;1251;99326;-62
2023/10/05 11:32:25;;;;;;;9.30;3.20;;;;;;;33.78;19.08;101857.00;107505;1252;99105;-62
2023/10/05 11:35:14;;;;;;;5.40;3.00;;;;;;;33.52;19.07;101853.62;107543;1253;112989;-62
2023/10/05 11:37:58;;;;;;;6.50;3.60;;;;;;;33.22;19.38;101849.86;107596;1254;109083;-62
2023/10/05 11:40:48;;;;;;;5.10;2.50;;;;;;;32.93;19.67;101844.52;107519;1256;108614;-62
2023/10/05 11:43:18;;;;;;;8.50;3.40;;;;;;;32.70;19.86;101835.38;107432;1256;100266;-62
2023/10/05 11:45:56;;;;;;;10.80;3.30;;;;;;;32.60;20.06;101832.58;107591;1254;99175;-62
2023/10/05 11:48:48;;;;;;;13.60;3.00;;;;;;;32.42;20.44;101833.25;107548;1253;113866;-61
2023/10/05 11:51:19;;;;;;;8.90;2.70;;;;;;;32.21;20.34;101828.99;107564;1251;109981;-62
2023/10/05 11:53:50;;;;;;;12.10;2.90;;;;;;;31.85;20.53;101823.89;107567;1253;108597;-62
2023/10/05 11:56:20;;;;;;;11.50;3.40;;;;;;;31.67;21.08;101819.41;107538;1251;99181;-62